createdAt,value
2019-03-15T00:00:35.263Z,79.74
2019-03-15T00:03:10.842Z,79.41
2019-03-15T00:05:44.483Z,79.42
2019-03-15T00:08:18.478Z,79.54
2019-03-15T00:10:52.501Z,79.69
2019-03-15T00:13:26.444Z,79.66
2019-03-15T00:16:00.293Z,79.92
2019-03-15T00:18:33.996Z,79.99
2019-03-15T00:21:08.259Z,79.87
2019-03-15T00:23:41.905Z,80.06
2019-03-15T00:26:15.937Z,80.30
2019-03-15T00:28:49.521Z,80.77
2019-03-15T00:31:27.245Z,79.98
2019-03-15T00:34:03.497Z,80.39
2019-03-15T00:36:37.232Z,80.33
2019-03-15T00:39:10.855Z,80.66
2019-03-15T00:41:44.496Z,80.02
2019-03-15T00:44:18.615Z,80.01
2019-03-15T00:46:52.779Z,80.50
2019-03-15T00:49:26.456Z,80.85
2019-03-15T00:52:01.714Z,81.27
2019-03-15T00:54:35.713Z,80.69
2019-03-15T00:57:10.461Z,80.95
2019-03-15T00:59:44.500Z,81.01
2019-03-15T01:02:18.469Z,80.96
2019-03-15T01:04:53.286Z,80.81
2019-03-15T01:07:28.284Z,81.09
2019-03-15T01:10:02.034Z,80.99
2019-03-15T01:12:35.786Z,81.25
2019-03-15T01:15:09.754Z,81.47
2019-03-15T01:17:44.984Z,81.33
2019-03-15T01:20:19.713Z,80.77
2019-03-15T01:22:53.352Z,81.12
2019-03-15T01:25:27.368Z,80.91
2019-03-15T01:28:02.363Z,80.51
2019-03-15T01:30:36.292Z,80.81
2019-03-15T01:33:09.974Z,80.82
2019-03-15T01:35:44.721Z,80.89
2019-03-15T01:38:19.440Z,81.15
2019-03-15T01:40:53.153Z,81.12
2019-03-15T01:43:27.928Z,80.68
2019-03-15T01:46:01.829Z,80.67
2019-03-15T01:48:36.743Z,80.51
2019-03-15T01:51:10.625Z,81.36
2019-03-15T01:53:46.688Z,81.23
2019-03-15T01:56:20.401Z,80.95
2019-03-15T01:58:54.220Z,81.31
2019-03-15T02:01:28.519Z,81.21
2019-03-15T02:04:02.189Z,81.06
2019-03-15T02:06:35.958Z,80.69
2019-03-15T02:09:10.116Z,80.96
2019-03-15T02:11:43.791Z,80.62
2019-03-15T02:14:17.663Z,80.99
2019-03-15T02:16:51.491Z,80.86
2019-03-15T02:19:28.827Z,80.48
2019-03-15T02:22:02.965Z,80.63
2019-03-15T02:24:36.800Z,80.92
2019-03-15T02:27:10.486Z,80.92
2019-03-15T02:29:44.177Z,80.83
2019-03-15T02:32:17.826Z,81.08
2019-03-15T02:34:51.647Z,80.90
2019-03-15T02:37:25.931Z,80.90
2019-03-15T02:40:02.501Z,80.93
2019-03-15T02:42:36.775Z,81.06
2019-03-15T02:45:12.567Z,81.28
2019-03-15T02:47:46.851Z,81.03
2019-03-15T02:50:21.687Z,81.11
2019-03-15T02:52:55.628Z,81.10
2019-03-15T02:55:29.450Z,80.98
2019-03-15T02:58:04.584Z,80.92
2019-03-15T03:00:38.291Z,81.02
2019-03-15T03:03:13.308Z,80.82
2019-03-15T03:05:47.162Z,81.01
2019-03-15T03:08:21.031Z,81.17
2019-03-15T03:10:56.105Z,81.60
2019-03-15T03:13:31.112Z,81.30
2019-03-15T03:16:07.267Z,81.48
2019-03-15T03:18:40.877Z,81.72
2019-03-15T03:21:15.898Z,81.99
2019-03-15T03:23:49.713Z,81.50
2019-03-15T03:26:24.414Z,81.68
2019-03-15T03:28:58.233Z,82.23
2019-03-15T03:31:31.956Z,82.45
2019-03-15T03:34:05.858Z,82.10
2019-03-15T03:36:39.775Z,82.22
2019-03-15T03:39:13.479Z,82.53
2019-03-15T03:41:47.226Z,82.79
2019-03-15T03:44:23.097Z,82.92
2019-03-15T03:46:56.912Z,83.19
2019-03-15T03:49:31.806Z,83.52
2019-03-15T03:52:05.731Z,83.58
2019-03-15T03:54:39.583Z,83.31
2019-03-15T03:57:13.219Z,82.81
2019-03-15T03:59:47.028Z,83.25
2019-03-15T04:02:20.905Z,82.78
2019-03-15T04:04:56.437Z,82.37
2019-03-15T04:07:30.500Z,82.02
2019-03-15T04:10:05.677Z,82.00
2019-03-15T04:12:39.562Z,82.24
2019-03-15T04:15:13.622Z,81.99
2019-03-15T04:17:47.716Z,82.26
2019-03-15T04:20:21.455Z,81.82
2019-03-15T04:22:56.808Z,82.02
2019-03-15T04:25:31.677Z,81.99
2019-03-15T04:28:05.274Z,82.07
2019-03-15T04:30:39.051Z,82.09
2019-03-15T04:33:12.841Z,81.99
2019-03-15T04:35:48.512Z,81.71
2019-03-15T04:38:22.318Z,82.07
2019-03-15T04:40:56.197Z,81.63
2019-03-15T04:43:31.118Z,81.89
2019-03-15T04:46:04.889Z,81.80
2019-03-15T04:48:38.945Z,81.69
2019-03-15T04:51:14.128Z,81.95
2019-03-15T04:53:49.666Z,81.82
2019-03-15T04:56:23.430Z,81.35
2019-03-15T04:58:58.316Z,81.30
2019-03-15T05:01:32.014Z,81.29
2019-03-15T05:04:07.186Z,81.53
2019-03-15T05:06:42.185Z,81.69
2019-03-15T05:09:15.880Z,81.61
2019-03-15T05:11:49.700Z,81.30
2019-03-15T05:14:26.329Z,81.21
2019-03-15T05:17:03.148Z,81.30
2019-03-15T05:19:39.125Z,81.62
2019-03-15T05:22:14.551Z,81.14
2019-03-15T05:24:49.266Z,81.31
2019-03-15T05:27:22.968Z,80.82
2019-03-15T05:29:58.638Z,81.11
2019-03-15T05:32:33.284Z,81.12
2019-03-15T05:35:07.780Z,81.15
2019-03-15T05:37:42.037Z,81.13
2019-03-15T05:40:15.914Z,80.71
2019-03-15T05:42:49.721Z,80.36
2019-03-15T05:45:23.809Z,80.87
2019-03-15T05:47:57.904Z,81.24
2019-03-15T05:50:31.840Z,81.16
2019-03-15T05:53:05.430Z,81.24
2019-03-15T05:55:39.040Z,81.06
2019-03-15T05:58:13.004Z,81.00
2019-03-15T06:00:46.652Z,81.06
2019-03-15T06:03:20.740Z,81.02
2019-03-15T06:05:54.500Z,81.16
2019-03-15T06:08:28.247Z,80.59
2019-03-15T06:11:02.116Z,80.39
2019-03-15T06:13:35.775Z,80.21
2019-03-15T06:16:09.503Z,80.17
2019-03-15T06:18:43.378Z,80.24
2019-03-15T06:21:18.066Z,79.98
2019-03-15T06:23:51.660Z,80.13
2019-03-15T06:26:25.557Z,79.91
2019-03-15T06:29:01.841Z,79.45
2019-03-15T06:32:16.583Z,79.63
2019-03-15T06:34:50.232Z,79.81
2019-03-15T06:37:24.423Z,79.29
2019-03-15T06:39:58.235Z,78.76
2019-03-15T06:42:32.209Z,78.37
2019-03-15T06:45:07.157Z,78.13
2019-03-15T06:47:42.556Z,77.42
2019-03-15T06:50:16.418Z,77.25
2019-03-15T06:52:51.894Z,77.01
2019-03-15T06:55:26.689Z,77.21
2019-03-15T06:58:00.703Z,77.51
2019-03-15T07:00:35.532Z,77.85
2019-03-15T07:03:09.871Z,77.34
2019-03-15T07:05:43.596Z,76.81
2019-03-15T07:08:18.626Z,76.17
2019-03-15T07:10:52.321Z,76.42
2019-03-15T07:13:26.463Z,76.67
2019-03-15T07:16:00.134Z,76.11
2019-03-15T07:18:34.058Z,75.79
2019-03-15T07:21:07.871Z,76.20
2019-03-15T07:23:41.593Z,76.24
2019-03-15T07:26:16.745Z,76.00
2019-03-15T07:28:53.812Z,76.23
2019-03-15T07:31:27.851Z,75.42
2019-03-15T07:34:03.708Z,75.36
2019-03-15T07:36:37.664Z,74.66
2019-03-15T07:39:13.369Z,74.72
2019-03-15T07:41:47.459Z,74.00
2019-03-15T07:44:21.276Z,73.10
2019-03-15T07:46:55.139Z,72.86
2019-03-15T07:49:30.232Z,73.06
2019-03-15T07:52:04.187Z,72.94
2019-03-15T07:54:38.830Z,73.10
2019-03-15T07:57:13.540Z,72.59
2019-03-15T07:59:49.077Z,72.91
2019-03-15T08:02:23.108Z,72.68
2019-03-15T08:04:57.695Z,72.50
2019-03-15T08:07:36.359Z,72.26
2019-03-15T08:10:15.156Z,71.91
2019-03-15T08:12:50.007Z,71.89
2019-03-15T08:15:23.896Z,71.77
2019-03-15T08:17:57.500Z,72.25
2019-03-15T08:20:31.282Z,72.68
2019-03-15T08:23:08.596Z,72.99
2019-03-15T08:25:44.553Z,73.02
2019-03-15T08:28:18.288Z,73.29
2019-03-15T08:30:52.167Z,72.70
2019-03-15T08:33:26.046Z,72.56
2019-03-15T08:36:01.751Z,72.45
2019-03-15T08:38:46.730Z,72.56
2019-03-15T08:41:11.025Z,71.95
2019-03-15T08:43:46.221Z,72.72
2019-03-15T08:46:20.317Z,73.45
2019-03-15T08:48:54.191Z,73.67
2019-03-15T08:51:28.179Z,74.05
2019-03-15T08:54:02.196Z,75.12
2019-03-15T08:56:36.379Z,75.33
2019-03-15T08:59:10.150Z,75.46
2019-03-15T09:01:45.138Z,75.49
2019-03-15T09:04:21.747Z,75.48
2019-03-15T09:06:56.316Z,76.01
2019-03-15T09:09:31.666Z,75.22
2019-03-15T09:12:06.510Z,76.99
2019-03-15T09:14:40.641Z,77.95
2019-03-15T09:17:14.419Z,78.16
2019-03-15T09:19:50.682Z,78.10
2019-03-15T09:22:24.430Z,78.42
2019-03-15T09:24:58.094Z,78.63
2019-03-15T09:27:31.891Z,78.98
2019-03-15T09:30:07.477Z,78.67
2019-03-15T09:32:43.106Z,79.61
2019-03-15T09:35:16.931Z,79.68
2019-03-15T09:37:51.770Z,80.14
2019-03-15T09:40:27.081Z,79.47
2019-03-15T09:43:01.007Z,79.63
2019-03-15T09:45:37.563Z,79.67
2019-03-15T09:48:11.439Z,79.92
2019-03-15T09:50:51.172Z,80.78
2019-03-15T09:53:20.802Z,80.65
2019-03-15T09:55:55.221Z,81.30
2019-03-15T09:58:30.127Z,81.83
2019-03-15T10:01:04.183Z,82.67
2019-03-15T10:03:38.404Z,83.31
2019-03-15T10:06:16.551Z,83.27
2019-03-15T10:08:47.719Z,83.37
2019-03-15T10:11:22.495Z,83.80
2019-03-15T10:13:56.305Z,83.49
2019-03-15T10:16:30.115Z,83.80
2019-03-15T10:19:05.455Z,84.31
2019-03-15T10:21:39.286Z,84.77
2019-03-15T10:24:15.659Z,84.51
2019-03-15T10:26:48.868Z,84.09
2019-03-15T10:29:24.139Z,83.85
2019-03-15T10:31:57.863Z,83.33
2019-03-15T10:34:31.889Z,83.20
2019-03-15T10:37:06.624Z,82.53
2019-03-15T10:39:41.414Z,82.15
2019-03-15T10:42:16.188Z,82.17
2019-03-15T10:44:50.983Z,81.83
2019-03-15T10:47:26.605Z,82.29
2019-03-15T10:50:00.673Z,82.87
2019-03-15T10:52:35.406Z,83.27
2019-03-15T10:55:09.410Z,83.57
2019-03-15T10:57:43.259Z,83.44
2019-03-15T11:00:17.661Z,84.25
2019-03-15T11:02:51.470Z,84.85
2019-03-15T11:05:26.174Z,84.53
2019-03-15T11:07:59.809Z,85.20
2019-03-15T11:10:33.596Z,85.90
2019-03-15T11:13:08.010Z,85.34
2019-03-15T11:15:43.604Z,85.87
2019-03-15T11:18:17.503Z,86.10
2019-03-15T11:20:51.771Z,85.73
2019-03-15T11:23:25.515Z,86.28
2019-03-15T11:26:12.718Z,86.56
2019-03-15T11:28:34.950Z,86.36
2019-03-15T11:31:09.022Z,86.93
2019-03-15T11:33:42.786Z,86.68
2019-03-15T11:36:17.820Z,86.47
2019-03-15T11:38:51.440Z,86.57
2019-03-15T11:41:27.594Z,87.03
2019-03-15T11:44:01.225Z,87.15
2019-03-15T11:46:36.347Z,87.30
2019-03-15T11:49:10.124Z,87.33
2019-03-15T11:51:43.930Z,87.00
2019-03-15T11:54:17.769Z,87.31
2019-03-15T11:56:53.257Z,86.77
2019-03-15T11:59:27.409Z,87.28
2019-03-15T12:02:04.170Z,87.82
2019-03-15T12:04:37.776Z,87.95
2019-03-15T12:07:11.547Z,88.17
2019-03-15T12:09:45.853Z,89.05
2019-03-15T12:12:21.652Z,89.41
2019-03-15T12:14:55.193Z,89.98
2019-03-15T12:17:29.204Z,90.20
2019-03-15T12:20:03.310Z,90.65
2019-03-15T12:22:37.333Z,90.67
2019-03-15T12:25:12.229Z,91.20
2019-03-15T12:27:47.359Z,91.16
2019-03-15T12:30:21.389Z,91.46
2019-03-15T12:32:55.285Z,91.90
2019-03-15T12:35:29.611Z,91.77
2019-03-15T12:38:05.022Z,91.90
2019-03-15T12:40:39.991Z,92.07
2019-03-15T12:43:13.703Z,92.36
2019-03-15T12:45:48.385Z,92.49
2019-03-15T12:48:24.337Z,92.80
2019-03-15T12:50:58.272Z,93.36
2019-03-15T12:53:33.020Z,93.13
2019-03-15T12:56:06.725Z,93.31
2019-03-15T12:58:40.418Z,93.15
2019-03-15T13:01:16.294Z,92.21
2019-03-15T13:03:50.559Z,91.47
2019-03-15T13:06:26.151Z,91.59
2019-03-15T13:09:01.290Z,91.40
2019-03-15T13:11:35.411Z,90.23
2019-03-15T13:14:09.605Z,88.89
2019-03-15T13:16:43.377Z,88.36
2019-03-15T13:19:18.146Z,88.28
2019-03-15T13:21:52.940Z,87.32
2019-03-15T13:24:26.699Z,86.73
2019-03-15T13:27:07.506Z,86.74
2019-03-15T13:29:39.431Z,86.54
2019-03-15T13:32:14.326Z,86.06
2019-03-15T13:34:48.249Z,85.75
2019-03-15T13:37:24.129Z,85.71
2019-03-15T13:39:57.840Z,85.32
2019-03-15T13:42:31.701Z,84.05
2019-03-15T13:45:06.214Z,82.81
2019-03-15T13:47:40.234Z,82.41
2019-03-15T13:50:14.601Z,82.99
2019-03-15T13:52:48.823Z,82.04
2019-03-15T13:55:22.687Z,81.52
2019-03-15T13:57:58.378Z,81.95
2019-03-15T14:00:34.683Z,81.19
2019-03-15T14:03:08.775Z,80.74
2019-03-15T14:05:42.643Z,80.18
2019-03-15T14:08:16.534Z,80.77
2019-03-15T14:10:50.475Z,80.05
2019-03-15T14:13:26.075Z,79.89
2019-03-15T14:16:01.608Z,79.49
2019-03-15T14:18:35.778Z,79.21
2019-03-15T14:21:09.812Z,79.40
2019-03-15T14:23:45.873Z,79.44
2019-03-15T14:26:19.886Z,79.15
2019-03-15T14:28:53.473Z,79.10
2019-03-15T14:31:28.274Z,77.90
2019-03-15T14:34:02.533Z,77.72
2019-03-15T14:36:36.343Z,77.62
2019-03-15T14:39:11.213Z,76.36
2019-03-15T14:41:47.019Z,75.31
2019-03-15T14:44:22.130Z,75.27
2019-03-15T14:46:55.873Z,74.70
2019-03-15T14:49:29.475Z,73.52
2019-03-15T14:52:04.865Z,72.62
2019-03-15T14:54:38.685Z,72.05
2019-03-15T14:57:12.970Z,71.57
2019-03-15T14:59:48.598Z,70.45
2019-03-15T15:02:22.299Z,71.00
2019-03-15T15:04:56.110Z,68.73
2019-03-15T15:07:29.790Z,69.50
2019-03-15T15:10:05.158Z,67.46
2019-03-15T15:12:39.130Z,66.11
2019-03-15T15:15:15.231Z,65.25
2019-03-15T15:17:50.194Z,64.88
2019-03-15T15:20:25.533Z,63.95
2019-03-15T15:22:59.586Z,63.19
2019-03-15T15:25:33.614Z,62.67
2019-03-15T15:28:09.291Z,63.14
2019-03-15T15:30:43.159Z,62.85
2019-03-15T15:33:16.957Z,62.39
2019-03-15T15:35:50.961Z,61.13
2019-03-15T15:38:24.911Z,61.08
2019-03-15T15:40:58.970Z,60.87
2019-03-15T15:43:34.587Z,61.02
2019-03-15T15:46:08.770Z,60.30
2019-03-15T15:48:43.699Z,60.13
2019-03-15T15:51:17.894Z,60.28
2019-03-15T15:53:51.611Z,59.29
2019-03-15T15:56:25.577Z,59.11
2019-03-15T15:59:03.065Z,58.88
2019-03-15T16:01:36.742Z,59.36
2019-03-15T16:04:10.976Z,59.15
2019-03-15T16:06:45.596Z,58.75
2019-03-15T16:10:19.287Z,58.73
2019-03-15T16:12:50.534Z,56.38
2019-03-15T16:15:21.760Z,56.65
2019-03-15T16:17:53.188Z,56.55
2019-03-15T16:20:24.898Z,57.01
2019-03-15T16:22:56.079Z,58.06
2019-03-15T16:25:29.370Z,59.02
2019-03-15T16:28:00.693Z,56.74
2019-03-15T16:30:32.188Z,58.88
2019-03-15T16:33:03.794Z,58.25
2019-03-15T16:35:34.797Z,57.32
2019-03-15T16:38:07.946Z,56.89
2019-03-15T16:40:39.215Z,56.87
2019-03-15T16:43:12.387Z,56.26
2019-03-15T16:45:43.781Z,56.72
2019-03-15T16:48:14.913Z,57.38
2019-03-15T16:50:46.201Z,57.71
2019-03-15T16:53:19.323Z,57.43
2019-03-15T16:55:51.863Z,57.24
2019-03-15T16:58:23.206Z,57.20
2019-03-15T17:00:54.550Z,57.59
2019-03-15T17:03:25.819Z,57.34
2019-03-15T17:05:58.542Z,57.45
2019-03-15T17:08:31.838Z,57.98
2019-03-15T17:11:03.025Z,58.15
2019-03-15T17:13:34.467Z,56.80
2019-03-15T17:16:05.805Z,57.41
2019-03-15T17:18:38.883Z,58.14
2019-03-15T17:21:10.544Z,57.84
2019-03-15T17:23:43.483Z,57.79
2019-03-15T17:26:14.978Z,56.49
2019-03-15T17:28:57.821Z,56.76
2019-03-15T17:31:19.305Z,56.76
2019-03-15T17:33:50.475Z,56.07
2019-03-15T17:36:21.657Z,56.20
2019-03-15T17:38:52.869Z,55.37
2019-03-15T17:41:23.923Z,55.53
2019-03-15T17:43:55.218Z,55.67
2019-03-15T17:46:26.614Z,56.09
2019-03-15T17:49:00.735Z,56.30
2019-03-15T17:51:34.336Z,56.04
2019-03-15T17:54:05.663Z,56.22
2019-03-15T17:56:37.289Z,56.80
2019-03-15T17:59:12.743Z,56.36
2019-03-15T18:01:41.878Z,56.08
2019-03-15T18:04:13.513Z,56.29
2019-03-15T18:06:44.809Z,57.20
2019-03-15T18:09:16.417Z,56.22
2019-03-15T18:11:49.813Z,56.92
2019-03-15T18:14:23.912Z,56.87
2019-03-15T18:16:55.129Z,57.28
2019-03-15T18:19:26.354Z,57.49
2019-03-15T18:21:57.588Z,57.84
2019-03-15T18:24:28.764Z,58.03
2019-03-15T18:27:00.308Z,58.46
2019-03-15T18:29:32.202Z,58.82
2019-03-15T18:32:11.171Z,58.42
2019-03-15T18:34:42.875Z,58.63
2019-03-15T18:37:14.544Z,58.95
2019-03-15T18:39:45.779Z,58.26
2019-03-15T18:42:16.970Z,58.46
2019-03-15T18:44:48.167Z,58.18
2019-03-15T18:47:19.899Z,58.40
2019-03-15T18:49:53.466Z,58.89
2019-03-15T18:52:28.701Z,59.23
2019-03-15T18:55:00.411Z,58.65
2019-03-15T18:57:32.034Z,58.99
2019-03-15T19:00:03.474Z,59.14
2019-03-15T19:02:34.866Z,59.32
2019-03-15T19:05:07.051Z,59.57
2019-03-15T19:07:40.275Z,59.18
2019-03-15T19:10:12.366Z,58.66
2019-03-15T19:12:46.593Z,58.64
2019-03-15T19:15:17.921Z,58.33
2019-03-15T19:17:49.208Z,58.00
2019-03-15T19:20:20.432Z,58.22
2019-03-15T19:22:51.667Z,57.46
2019-03-15T19:25:23.111Z,57.05
2019-03-15T19:27:58.245Z,56.79
2019-03-15T19:30:30.418Z,57.40
2019-03-15T19:33:02.221Z,58.14
2019-03-15T19:35:33.686Z,58.58
2019-03-15T19:38:06.430Z,59.48
2019-03-15T19:40:38.216Z,60.04
2019-03-15T19:43:12.500Z,60.34
2019-03-15T19:45:44.349Z,60.44
2019-03-15T19:48:15.757Z,60.47
2019-03-15T19:50:47.280Z,60.37
2019-03-15T19:53:19.103Z,61.14
2019-03-15T19:55:50.396Z,60.59
2019-03-15T19:58:24.178Z,59.86
2019-03-15T20:00:55.810Z,60.10
2019-03-15T20:03:27.166Z,60.35
2019-03-15T20:06:00.665Z,60.26
2019-03-15T20:08:32.316Z,60.58
2019-03-15T20:11:04.326Z,60.98
2019-03-15T20:13:37.606Z,60.83
2019-03-15T20:16:09.361Z,61.30
2019-03-15T20:18:41.089Z,61.14
2019-03-15T20:21:13.008Z,61.70
2019-03-15T20:23:46.072Z,61.39
2019-03-15T20:26:17.354Z,60.19
2019-03-15T20:28:49.842Z,60.60
2019-03-15T20:31:21.405Z,60.25
2019-03-15T20:33:52.927Z,60.88
2019-03-15T20:36:24.670Z,59.21
2019-03-15T20:38:57.034Z,60.17
2019-03-15T20:41:28.983Z,59.69
2019-03-15T20:44:00.594Z,59.50
2019-03-15T20:46:35.980Z,59.54
2019-03-15T20:49:06.661Z,59.43
2019-03-15T20:51:39.904Z,59.21
2019-03-15T20:54:12.351Z,59.57
2019-03-15T20:56:43.939Z,59.85
2019-03-15T20:59:15.296Z,59.53
2019-03-15T21:01:49.002Z,59.48
2019-03-15T21:04:19.910Z,59.47
2019-03-15T21:06:51.511Z,59.41
2019-03-15T21:09:23.959Z,59.37
2019-03-15T21:11:55.930Z,58.91
2019-03-15T21:14:27.514Z,59.27
2019-03-15T21:16:58.976Z,60.04
2019-03-15T21:19:32.016Z,60.14
2019-03-15T21:22:04.178Z,60.00
2019-03-15T21:24:35.845Z,59.80
2019-03-15T21:27:09.542Z,59.27
2019-03-15T21:29:41.527Z,59.79
2019-03-15T21:32:13.217Z,60.33
2019-03-15T21:34:44.554Z,60.75
2019-03-15T21:37:15.837Z,60.84
2019-03-15T21:39:49.495Z,61.07
2019-03-15T21:42:21.355Z,61.73
2019-03-15T21:44:52.808Z,62.14
2019-03-15T21:47:24.245Z,62.97
2019-03-15T21:49:55.505Z,63.10
2019-03-15T21:52:27.080Z,63.10
2019-03-15T21:54:58.340Z,63.12
2019-03-15T21:57:30.695Z,63.97
2019-03-15T22:00:05.297Z,64.21
2019-03-15T22:02:39.561Z,64.42
2019-03-15T22:05:11.024Z,64.74
2019-03-15T22:07:43.057Z,65.11
2019-03-15T22:10:15.256Z,65.17
2019-03-15T22:12:46.477Z,65.60
2019-03-15T22:15:18.437Z,65.82
2019-03-15T22:17:49.841Z,66.30
2019-03-15T22:20:23.183Z,66.35
2019-03-15T22:22:54.368Z,66.78
2019-03-15T22:25:25.477Z,67.30
2019-03-15T22:27:58.732Z,67.73
2019-03-15T22:30:31.709Z,67.80
2019-03-15T22:33:03.249Z,67.70
2019-03-15T22:35:34.946Z,67.90
2019-03-15T22:38:06.084Z,68.14
2019-03-15T22:40:38.190Z,68.39
2019-03-15T22:43:09.803Z,68.73
2019-03-15T22:45:40.886Z,68.66
2019-03-15T22:48:11.967Z,68.64
2019-03-15T22:50:43.063Z,68.52
2019-03-15T22:53:14.136Z,68.54
2019-03-15T22:55:45.331Z,69.22
2019-03-15T22:58:18.272Z,69.22
2019-03-15T23:00:51.059Z,68.82
2019-03-15T23:03:22.411Z,68.67
2019-03-15T23:05:54.581Z,69.00
2019-03-15T23:08:27.248Z,68.92
2019-03-15T23:10:58.410Z,69.22
2019-03-15T23:13:30.010Z,69.59
2019-03-15T23:16:01.360Z,69.27
2019-03-15T23:18:32.611Z,69.08
2019-03-15T23:21:03.919Z,68.83
2019-03-15T23:23:36.973Z,68.63
2019-03-15T23:26:08.788Z,68.21
2019-03-15T23:28:39.920Z,68.42
2019-03-15T23:31:11.393Z,67.76
2019-03-15T23:33:42.511Z,67.64
2019-03-15T23:36:14.794Z,67.72
2019-03-15T23:38:46.033Z,67.81
2019-03-15T23:41:17.309Z,68.13
2019-03-15T23:43:49.730Z,68.66
2019-03-15T23:46:20.996Z,68.82
2019-03-15T23:48:52.484Z,69.24
2019-03-15T23:51:24.040Z,69.43
2019-03-15T23:53:55.354Z,69.20
2019-03-15T23:56:26.459Z,69.43
2019-03-15T23:58:57.720Z,69.70
